sensor_id;sensor_type;location;lat;lon;timestamp;temperature;humidity
39045;DHT22;52192;52.002;5.956;2023-03-14T00:01:19;14.80;70.90
39045;DHT22;52192;52.002;5.956;2023-03-14T00:03:48;14.80;70.90
39045;DHT22;52192;52.002;5.956;2023-03-14T00:06:15;14.70;71.00
39045;DHT22;52192;52.002;5.956;2023-03-14T00:08:41;14.70;71.20
39045;DHT22;52192;52.002;5.956;2023-03-14T00:11:19;14.70;71.10
39045;DHT22;52192;52.002;5.956;2023-03-14T00:13:49;14.70;71.00
39045;DHT22;52192;52.002;5.956;2023-03-14T00:16:15;14.70;70.90
39045;DHT22;52192;52.002;5.956;2023-03-14T00:18:40;14.70;71.00
39045;DHT22;52192;52.002;5.956;2023-03-14T00:21:07;14.70;71.20
39045;DHT22;52192;52.002;5.956;2023-03-14T00:23:35;14.60;71.40
39045;DHT22;52192;52.002;5.956;2023-03-14T00:26:07;14.60;71.70
39045;DHT22;52192;52.002;5.956;2023-03-14T00:28:33;14.60;71.70
39045;DHT22;52192;52.002;5.956;2023-03-14T00:31:01;14.50;71.90
39045;DHT22;52192;52.002;5.956;2023-03-14T00:33:27;14.40;72.60
39045;DHT22;52192;52.002;5.956;2023-03-14T00:35:57;14.30;73.20
39045;DHT22;52192;52.002;5.956;2023-03-14T00:38:24;14.10;73.60
39045;DHT22;52192;52.002;5.956;2023-03-14T00:40:50;14.00;73.80
39045;DHT22;52192;52.002;5.956;2023-03-14T00:43:17;14.00;74.00
39045;DHT22;52192;52.002;5.956;2023-03-14T00:45:42;13.90;73.90
39045;DHT22;52192;52.002;5.956;2023-03-14T00:48:08;13.90;73.80
39045;DHT22;52192;52.002;5.956;2023-03-14T00:50:34;13.90;73.40
39045;DHT22;52192;52.002;5.956;2023-03-14T00:53:00;13.90;73.00
39045;DHT22;52192;52.002;5.956;2023-03-14T00:55:25;13.80;72.80
39045;DHT22;52192;52.002;5.956;2023-03-14T00:57:51;13.80;72.80
39045;DHT22;52192;52.002;5.956;2023-03-14T01:00:17;13.80;72.70
39045;DHT22;52192;52.002;5.956;2023-03-14T01:02:43;13.70;72.40
39045;DHT22;52192;52.002;5.956;2023-03-14T01:05:09;13.70;72.10
39045;DHT22;52192;52.002;5.956;2023-03-14T01:07:38;13.70;72.00
39045;DHT22;52192;52.002;5.956;2023-03-14T01:10:05;13.60;71.90
39045;DHT22;52192;52.002;5.956;2023-03-14T01:12:31;13.60;71.90
39045;DHT22;52192;52.002;5.956;2023-03-14T01:14:57;13.60;71.80
39045;DHT22;52192;52.002;5.956;2023-03-14T01:17:23;13.60;71.90
39045;DHT22;52192;52.002;5.956;2023-03-14T01:19:48;13.50;71.90
39045;DHT22;52192;52.002;5.956;2023-03-14T01:22:14;13.50;72.00
39045;DHT22;52192;52.002;5.956;2023-03-14T01:24:40;13.50;72.00
39045;DHT22;52192;52.002;5.956;2023-03-14T01:27:05;13.50;72.00
39045;DHT22;52192;52.002;5.956;2023-03-14T01:29:31;13.60;71.90
39045;DHT22;52192;52.002;5.956;2023-03-14T01:31:57;13.60;71.80
39045;DHT22;52192;52.002;5.956;2023-03-14T01:34:22;13.60;71.70
39045;DHT22;52192;52.002;5.956;2023-03-14T01:36:48;13.50;71.50
39045;DHT22;52192;52.002;5.956;2023-03-14T01:39:14;13.50;71.40
39045;DHT22;52192;52.002;5.956;2023-03-14T01:41:40;13.50;71.20
39045;DHT22;52192;52.002;5.956;2023-03-14T01:44:12;13.50;71.00
39045;DHT22;52192;52.002;5.956;2023-03-14T01:46:42;13.50;71.10
39045;DHT22;52192;52.002;5.956;2023-03-14T01:49:13;13.40;71.30
39045;DHT22;52192;52.002;5.956;2023-03-14T01:57:28;13.20;73.50
39045;DHT22;52192;52.002;5.956;2023-03-14T02:00:03;13.10;73.50
39045;DHT22;52192;52.002;5.956;2023-03-14T02:02:31;13.00;74.40
39045;DHT22;52192;52.002;5.956;2023-03-14T02:04:59;12.90;75.50
39045;DHT22;52192;52.002;5.956;2023-03-14T02:07:37;12.70;76.30
39045;DHT22;52192;52.002;5.956;2023-03-14T02:10:05;12.60;76.90
39045;DHT22;52192;52.002;5.956;2023-03-14T02:12:32;12.50;77.60
39045;DHT22;52192;52.002;5.956;2023-03-14T02:14:58;12.50;78.40
39045;DHT22;52192;52.002;5.956;2023-03-14T02:17:24;12.40;78.40
39045;DHT22;52192;52.002;5.956;2023-03-14T02:22:33;12.30;79.10
39045;DHT22;52192;52.002;5.956;2023-03-14T02:25:24;12.20;79.80
39045;DHT22;52192;52.002;5.956;2023-03-14T02:27:52;12.30;79.60
39045;DHT22;52192;52.002;5.956;2023-03-14T02:30:19;12.10;80.20
39045;DHT22;52192;52.002;5.956;2023-03-14T02:32:47;12.00;80.60
39045;DHT22;52192;52.002;5.956;2023-03-14T02:35:49;12.00;80.70
39045;DHT22;52192;52.002;5.956;2023-03-14T02:38:27;12.00;81.10
39045;DHT22;52192;52.002;5.956;2023-03-14T02:40:54;11.90;81.80
39045;DHT22;52192;52.002;5.956;2023-03-14T02:43:20;11.70;82.40
39045;DHT22;52192;52.002;5.956;2023-03-14T02:45:47;11.70;82.70
39045;DHT22;52192;52.002;5.956;2023-03-14T02:50:57;11.80;82.50
39045;DHT22;52192;52.002;5.956;2023-03-14T02:53:33;11.80;82.30
39045;DHT22;52192;52.002;5.956;2023-03-14T02:56:00;11.90;82.20
39045;DHT22;52192;52.002;5.956;2023-03-14T02:58:26;11.90;82.00
39045;DHT22;52192;52.002;5.956;2023-03-14T03:00:52;12.00;81.80
39045;DHT22;52192;52.002;5.956;2023-03-14T03:03:18;12.10;81.50
39045;DHT22;52192;52.002;5.956;2023-03-14T03:05:51;12.10;81.20
39045;DHT22;52192;52.002;5.956;2023-03-14T03:08:18;12.20;81.10
39045;DHT22;52192;52.002;5.956;2023-03-14T03:10:44;12.30;80.80
39045;DHT22;52192;52.002;5.956;2023-03-14T03:13:10;12.30;80.50
39045;DHT22;52192;52.002;5.956;2023-03-14T03:15:35;12.30;80.30
39045;DHT22;52192;52.002;5.956;2023-03-14T03:18:01;12.30;80.10
39045;DHT22;52192;52.002;5.956;2023-03-14T03:20:27;12.30;80.10
39045;DHT22;52192;52.002;5.956;2023-03-14T03:22:52;12.30;80.10
39045;DHT22;52192;52.002;5.956;2023-03-14T03:25:18;12.30;80.00
39045;DHT22;52192;52.002;5.956;2023-03-14T03:27:44;12.20;80.00
39045;DHT22;52192;52.002;5.956;2023-03-14T03:30:10;12.10;80.30
39045;DHT22;52192;52.002;5.956;2023-03-14T03:32:36;12.10;80.40
39045;DHT22;52192;52.002;5.956;2023-03-14T03:35:03;12.10;80.40
39045;DHT22;52192;52.002;5.956;2023-03-14T03:37:33;12.10;80.30
39045;DHT22;52192;52.002;5.956;2023-03-14T03:39:59;12.10;80.30
39045;DHT22;52192;52.002;5.956;2023-03-14T03:42:26;12.10;80.20
39045;DHT22;52192;52.002;5.956;2023-03-14T03:44:53;12.20;80.00
39045;DHT22;52192;52.002;5.956;2023-03-14T03:47:18;12.20;79.90
39045;DHT22;52192;52.002;5.956;2023-03-14T03:49:44;12.20;79.80
39045;DHT22;52192;52.002;5.956;2023-03-14T03:52:09;12.20;79.70
39045;DHT22;52192;52.002;5.956;2023-03-14T03:54:35;12.30;79.60
39045;DHT22;52192;52.002;5.956;2023-03-14T03:57:01;12.30;79.40
39045;DHT22;52192;52.002;5.956;2023-03-14T03:59:27;12.30;79.40
39045;DHT22;52192;52.002;5.956;2023-03-14T04:01:53;12.30;79.10
39045;DHT22;52192;52.002;5.956;2023-03-14T04:04:19;12.20;79.00
39045;DHT22;52192;52.002;5.956;2023-03-14T04:06:44;12.20;79.00
39045;DHT22;52192;52.002;5.956;2023-03-14T04:09:11;12.20;79.00
39045;DHT22;52192;52.002;5.956;2023-03-14T04:11:37;12.30;79.00
39045;DHT22;52192;52.002;5.956;2023-03-14T04:14:03;12.30;78.90
39045;DHT22;52192;52.002;5.956;2023-03-14T04:16:29;12.30;78.80
39045;DHT22;52192;52.002;5.956;2023-03-14T04:18:57;12.20;78.50
39045;DHT22;52192;52.002;5.956;2023-03-14T04:21:23;12.20;78.60
39045;DHT22;52192;52.002;5.956;2023-03-14T04:23:49;12.20;78.70
39045;DHT22;52192;52.002;5.956;2023-03-14T04:26:15;12.20;78.50
39045;DHT22;52192;52.002;5.956;2023-03-14T04:28:40;12.20;78.50
39045;DHT22;52192;52.002;5.956;2023-03-14T04:31:10;12.20;78.40
39045;DHT22;52192;52.002;5.956;2023-03-14T04:33:36;12.20;78.30
39045;DHT22;52192;52.002;5.956;2023-03-14T04:36:04;12.30;78.20
39045;DHT22;52192;52.002;5.956;2023-03-14T04:38:30;12.30;78.10
39045;DHT22;52192;52.002;5.956;2023-03-14T04:40:56;12.30;78.10
39045;DHT22;52192;52.002;5.956;2023-03-14T04:43:21;12.30;78.00
39045;DHT22;52192;52.002;5.956;2023-03-14T04:45:47;12.30;78.00
39045;DHT22;52192;52.002;5.956;2023-03-14T04:48:13;12.30;78.00
39045;DHT22;52192;52.002;5.956;2023-03-14T04:50:39;12.30;77.70
39045;DHT22;52192;52.002;5.956;2023-03-14T04:53:05;12.30;77.70
39045;DHT22;52192;52.002;5.956;2023-03-14T04:55:32;12.30;77.70
39045;DHT22;52192;52.002;5.956;2023-03-14T04:57:58;12.30;77.60
39045;DHT22;52192;52.002;5.956;2023-03-14T05:00:24;12.40;77.60
39045;DHT22;52192;52.002;5.956;2023-03-14T05:02:50;12.40;77.30
39045;DHT22;52192;52.002;5.956;2023-03-14T05:05:16;12.40;77.30
39045;DHT22;52192;52.002;5.956;2023-03-14T05:07:42;12.40;77.10
39045;DHT22;52192;52.002;5.956;2023-03-14T05:10:08;12.40;76.90
39045;DHT22;52192;52.002;5.956;2023-03-14T05:12:34;12.40;77.30
39045;DHT22;52192;52.002;5.956;2023-03-14T05:15:00;12.30;77.50
39045;DHT22;52192;52.002;5.956;2023-03-14T05:17:26;12.30;77.70
39045;DHT22;52192;52.002;5.956;2023-03-14T05:19:51;12.30;77.80
39045;DHT22;52192;52.002;5.956;2023-03-14T05:22:17;12.30;77.80
39045;DHT22;52192;52.002;5.956;2023-03-14T05:24:44;12.20;77.90
39045;DHT22;52192;52.002;5.956;2023-03-14T05:27:10;12.20;78.00
39045;DHT22;52192;52.002;5.956;2023-03-14T05:29:35;12.20;78.10
39045;DHT22;52192;52.002;5.956;2023-03-14T05:32:01;12.20;78.10
39045;DHT22;52192;52.002;5.956;2023-03-14T05:34:27;12.20;78.30
39045;DHT22;52192;52.002;5.956;2023-03-14T05:36:52;12.10;78.40
39045;DHT22;52192;52.002;5.956;2023-03-14T05:39:18;12.10;78.40
39045;DHT22;52192;52.002;5.956;2023-03-14T05:41:44;12.10;78.40
39045;DHT22;52192;52.002;5.956;2023-03-14T05:44:09;12.10;78.70
39045;DHT22;52192;52.002;5.956;2023-03-14T05:46:35;12.10;78.90
39045;DHT22;52192;52.002;5.956;2023-03-14T05:49:01;12.10;79.10
39045;DHT22;52192;52.002;5.956;2023-03-14T05:51:27;12.10;79.10
39045;DHT22;52192;52.002;5.956;2023-03-14T05:53:52;12.10;79.10
39045;DHT22;52192;52.002;5.956;2023-03-14T05:56:18;12.10;79.30
39045;DHT22;52192;52.002;5.956;2023-03-14T05:58:44;12.10;79.30
39045;DHT22;52192;52.002;5.956;2023-03-14T06:01:09;12.00;79.50
39045;DHT22;52192;52.002;5.956;2023-03-14T06:03:35;12.00;79.90
39045;DHT22;52192;52.002;5.956;2023-03-14T06:06:01;11.90;80.10
39045;DHT22;52192;52.002;5.956;2023-03-14T06:08:27;11.90;80.40
39045;DHT22;52192;52.002;5.956;2023-03-14T06:10:54;11.90;80.60
39045;DHT22;52192;52.002;5.956;2023-03-14T06:13:20;11.90;80.80
39045;DHT22;52192;52.002;5.956;2023-03-14T06:15:45;11.90;81.00
39045;DHT22;52192;52.002;5.956;2023-03-14T06:18:11;11.90;81.00
39045;DHT22;52192;52.002;5.956;2023-03-14T06:20:38;11.90;81.00
39045;DHT22;52192;52.002;5.956;2023-03-14T06:23:05;11.90;81.00
39045;DHT22;52192;52.002;5.956;2023-03-14T06:25:32;11.90;81.00
39045;DHT22;52192;52.002;5.956;2023-03-14T06:27:58;11.90;81.40
39045;DHT22;52192;52.002;5.956;2023-03-14T06:30:23;11.90;81.50
39045;DHT22;52192;52.002;5.956;2023-03-14T06:32:49;11.90;81.80
39045;DHT22;52192;52.002;5.956;2023-03-14T06:35:15;11.90;81.90
39045;DHT22;52192;52.002;5.956;2023-03-14T06:37:41;11.90;81.90
39045;DHT22;52192;52.002;5.956;2023-03-14T06:40:08;11.90;82.20
39045;DHT22;52192;52.002;5.956;2023-03-14T06:42:34;11.90;82.20
39045;DHT22;52192;52.002;5.956;2023-03-14T06:45:00;11.90;82.30
39045;DHT22;52192;52.002;5.956;2023-03-14T06:47:26;11.90;82.40
39045;DHT22;52192;52.002;5.956;2023-03-14T06:49:51;12.00;82.50
39045;DHT22;52192;52.002;5.956;2023-03-14T06:52:17;11.90;82.90
39045;DHT22;52192;52.002;5.956;2023-03-14T06:54:42;11.90;83.10
39045;DHT22;52192;52.002;5.956;2023-03-14T06:57:08;11.90;83.30
39045;DHT22;52192;52.002;5.956;2023-03-14T06:59:34;11.90;83.30
39045;DHT22;52192;52.002;5.956;2023-03-14T07:01:59;11.90;83.60
39045;DHT22;52192;52.002;5.956;2023-03-14T07:04:25;11.80;83.70
39045;DHT22;52192;52.002;5.956;2023-03-14T07:06:51;11.80;83.70
39045;DHT22;52192;52.002;5.956;2023-03-14T07:09:16;11.90;83.70
39045;DHT22;52192;52.002;5.956;2023-03-14T07:11:45;11.90;83.90
39045;DHT22;52192;52.002;5.956;2023-03-14T07:14:11;11.90;84.20
39045;DHT22;52192;52.002;5.956;2023-03-14T07:16:36;11.90;84.10
39045;DHT22;52192;52.002;5.956;2023-03-14T07:19:03;11.90;84.10
39045;DHT22;52192;52.002;5.956;2023-03-14T07:21:29;12.00;84.20
39045;DHT22;52192;52.002;5.956;2023-03-14T07:23:54;11.90;84.30
39045;DHT22;52192;52.002;5.956;2023-03-14T07:26:20;12.00;84.20
39045;DHT22;52192;52.002;5.956;2023-03-14T07:28:46;12.00;84.10
39045;DHT22;52192;52.002;5.956;2023-03-14T07:31:11;12.00;84.30
39045;DHT22;52192;52.002;5.956;2023-03-14T07:33:37;11.90;84.70
39045;DHT22;52192;52.002;5.956;2023-03-14T07:36:03;11.80;85.20
39045;DHT22;52192;52.002;5.956;2023-03-14T07:38:29;11.70;85.40
39045;DHT22;52192;52.002;5.956;2023-03-14T07:41:13;11.70;85.40
39045;DHT22;52192;52.002;5.956;2023-03-14T07:43:39;11.70;84.60
39045;DHT22;52192;52.002;5.956;2023-03-14T07:46:05;11.70;84.50
39045;DHT22;52192;52.002;5.956;2023-03-14T07:48:31;11.70;84.20
39045;DHT22;52192;52.002;5.956;2023-03-14T07:50:57;11.70;83.20
39045;DHT22;52192;52.002;5.956;2023-03-14T07:53:23;11.60;82.60
39045;DHT22;52192;52.002;5.956;2023-03-14T07:55:51;11.40;82.30
39045;DHT22;52192;52.002;5.956;2023-03-14T07:58:17;11.40;82.30
39045;DHT22;52192;52.002;5.956;2023-03-14T08:00:43;11.30;81.80
39045;DHT22;52192;52.002;5.956;2023-03-14T08:03:09;11.20;81.80
39045;DHT22;52192;52.002;5.956;2023-03-14T08:05:38;11.10;81.90
39045;DHT22;52192;52.002;5.956;2023-03-14T08:08:05;11.00;82.00
39045;DHT22;52192;52.002;5.956;2023-03-14T08:10:31;11.00;82.00
39045;DHT22;52192;52.002;5.956;2023-03-14T08:12:58;10.90;82.10
39045;DHT22;52192;52.002;5.956;2023-03-14T08:15:25;10.80;82.30
39045;DHT22;52192;52.002;5.956;2023-03-14T08:17:51;10.70;82.40
39045;DHT22;52192;52.002;5.956;2023-03-14T08:20:19;10.70;82.50
39045;DHT22;52192;52.002;5.956;2023-03-14T08:22:44;10.70;82.50
39045;DHT22;52192;52.002;5.956;2023-03-14T08:25:10;10.70;82.50
39045;DHT22;52192;52.002;5.956;2023-03-14T08:27:37;10.70;82.40
39045;DHT22;52192;52.002;5.956;2023-03-14T08:30:05;10.70;82.10
39045;DHT22;52192;52.002;5.956;2023-03-14T08:32:31;10.70;81.90
39045;DHT22;52192;52.002;5.956;2023-03-14T08:34:57;10.70;81.60
39045;DHT22;52192;52.002;5.956;2023-03-14T08:37:23;10.60;81.70
39045;DHT22;52192;52.002;5.956;2023-03-14T08:39:50;10.60;81.80
39045;DHT22;52192;52.002;5.956;2023-03-14T08:42:17;10.50;81.70
39045;DHT22;52192;52.002;5.956;2023-03-14T08:44:42;10.40;81.40
39045;DHT22;52192;52.002;5.956;2023-03-14T08:47:08;10.30;81.60
39045;DHT22;52192;52.002;5.956;2023-03-14T08:50:00;10.30;81.40
39045;DHT22;52192;52.002;5.956;2023-03-14T08:52:30;10.20;81.10
39045;DHT22;52192;52.002;5.956;2023-03-14T08:54:56;10.10;81.20
39045;DHT22;52192;52.002;5.956;2023-03-14T08:57:22;10.10;81.30
39045;DHT22;52192;52.002;5.956;2023-03-14T08:59:53;10.00;80.10
39045;DHT22;52192;52.002;5.956;2023-03-14T09:02:19;10.00;81.10
39045;DHT22;52192;52.002;5.956;2023-03-14T09:04:45;10.00;80.40
39045;DHT22;52192;52.002;5.956;2023-03-14T09:07:10;10.10;80.20
39045;DHT22;52192;52.002;5.956;2023-03-14T09:09:36;10.00;79.90
39045;DHT22;52192;52.002;5.956;2023-03-14T09:12:02;10.00;79.70
39045;DHT22;52192;52.002;5.956;2023-03-14T09:14:28;10.10;79.80
39045;DHT22;52192;52.002;5.956;2023-03-14T09:16:54;10.10;79.60
39045;DHT22;52192;52.002;5.956;2023-03-14T09:19:20;10.00;79.60
39045;DHT22;52192;52.002;5.956;2023-03-14T09:21:45;10.00;79.60
39045;DHT22;52192;52.002;5.956;2023-03-14T09:24:11;9.90;79.70
39045;DHT22;52192;52.002;5.956;2023-03-14T09:26:37;9.90;79.80
39045;DHT22;52192;52.002;5.956;2023-03-14T09:29:03;9.80;79.30
39045;DHT22;52192;52.002;5.956;2023-03-14T09:31:29;9.70;79.30
39045;DHT22;52192;52.002;5.956;2023-03-14T09:33:55;9.70;79.00
39045;DHT22;52192;52.002;5.956;2023-03-14T09:36:21;9.80;79.20
39045;DHT22;52192;52.002;5.956;2023-03-14T09:38:47;10.00;78.70
39045;DHT22;52192;52.002;5.956;2023-03-14T09:41:26;10.20;78.00
39045;DHT22;52192;52.002;5.956;2023-03-14T09:44:00;10.50;77.90
39045;DHT22;52192;52.002;5.956;2023-03-14T09:46:29;10.70;77.20
39045;DHT22;52192;52.002;5.956;2023-03-14T09:48:55;10.80;75.30
39045;DHT22;52192;52.002;5.956;2023-03-14T09:51:21;10.70;73.60
39045;DHT22;52192;52.002;5.956;2023-03-14T09:53:50;10.70;74.00
39045;DHT22;52192;52.002;5.956;2023-03-14T09:56:20;10.60;73.50
39045;DHT22;52192;52.002;5.956;2023-03-14T09:59:02;10.70;74.00
39045;DHT22;52192;52.002;5.956;2023-03-14T10:01:31;10.70;73.80
39045;DHT22;52192;52.002;5.956;2023-03-14T10:04:07;10.70;73.70
39045;DHT22;52192;52.002;5.956;2023-03-14T10:06:35;10.60;73.00
39045;DHT22;52192;52.002;5.956;2023-03-14T10:09:01;10.50;72.70
39045;DHT22;52192;52.002;5.956;2023-03-14T10:11:27;10.50;73.10
39045;DHT22;52192;52.002;5.956;2023-03-14T10:14:08;10.60;73.10
39045;DHT22;52192;52.002;5.956;2023-03-14T10:16:41;10.80;72.90
39045;DHT22;52192;52.002;5.956;2023-03-14T10:19:11;10.90;71.70
39045;DHT22;52192;52.002;5.956;2023-03-14T10:21:50;10.90;71.90
39045;DHT22;52192;52.002;5.956;2023-03-14T10:24:20;10.90;72.30
39045;DHT22;52192;52.002;5.956;2023-03-14T10:26:53;10.80;70.90
39045;DHT22;52192;52.002;5.956;2023-03-14T10:29:19;10.60;70.70
39045;DHT22;52192;52.002;5.956;2023-03-14T10:31:51;10.50;71.20
39045;DHT22;52192;52.002;5.956;2023-03-14T10:34:22;10.50;71.40
39045;DHT22;52192;52.002;5.956;2023-03-14T10:36:59;10.50;71.80
39045;DHT22;52192;52.002;5.956;2023-03-14T10:42:19;10.50;71.20
39045;DHT22;52192;52.002;5.956;2023-03-14T10:45:06;10.60;71.20
39045;DHT22;52192;52.002;5.956;2023-03-14T10:47:35;10.60;71.40
39045;DHT22;52192;52.002;5.956;2023-03-14T10:50:30;10.60;70.80
39045;DHT22;52192;52.002;5.956;2023-03-14T10:52:57;10.70;70.70
39045;DHT22;52192;52.002;5.956;2023-03-14T10:55:26;10.50;71.00
39045;DHT22;52192;52.002;5.956;2023-03-14T10:57:52;10.40;71.60
39045;DHT22;52192;52.002;5.956;2023-03-14T11:00:22;10.30;71.80
39045;DHT22;52192;52.002;5.956;2023-03-14T11:06:11;10.10;71.50
39045;DHT22;52192;52.002;5.956;2023-03-14T11:08:51;10.10;71.70
39045;DHT22;52192;52.002;5.956;2023-03-14T11:11:19;10.00;72.40
39045;DHT22;52192;52.002;5.956;2023-03-14T11:16:34;10.00;71.40
39045;DHT22;52192;52.002;5.956;2023-03-14T11:27:55;11.00;70.00
39045;DHT22;52192;52.002;5.956;2023-03-14T11:35:59;10.70;69.00
39045;DHT22;52192;52.002;5.956;2023-03-14T11:38:37;10.60;69.30
39045;DHT22;52192;52.002;5.956;2023-03-14T11:41:04;10.70;69.10
39045;DHT22;52192;52.002;5.956;2023-03-14T11:43:39;10.70;69.10
39045;DHT22;52192;52.002;5.956;2023-03-14T11:46:18;10.80;68.70
39045;DHT22;52192;52.002;5.956;2023-03-14T11:51:28;11.10;67.80
39045;DHT22;52192;52.002;5.956;2023-03-14T11:56:43;11.20;62.90
39045;DHT22;52192;52.002;5.956;2023-03-14T11:59:16;11.40;62.40
39045;DHT22;52192;52.002;5.956;2023-03-14T12:01:53;11.80;61.80
39045;DHT22;52192;52.002;5.956;2023-03-14T12:07:02;12.70;58.50
39045;DHT22;52192;52.002;5.956;2023-03-14T12:09:29;12.80;57.80
39045;DHT22;52192;52.002;5.956;2023-03-14T12:11:57;13.10;55.30
39045;DHT22;52192;52.002;5.956;2023-03-14T12:14:36;13.10;54.50
39045;DHT22;52192;52.002;5.956;2023-03-14T12:17:40;13.30;54.70
39045;DHT22;52192;52.002;5.956;2023-03-14T12:20:20;13.70;54.70
39045;DHT22;52192;52.002;5.956;2023-03-14T12:22:54;14.00;53.10
39045;DHT22;52192;52.002;5.956;2023-03-14T12:25:27;14.10;51.50
39045;DHT22;52192;52.002;5.956;2023-03-14T12:30:26;13.90;48.60
39045;DHT22;52192;52.002;5.956;2023-03-14T12:35:50;13.70;46.60
39045;DHT22;52192;52.002;5.956;2023-03-14T12:43:41;13.40;44.60
39045;DHT22;52192;52.002;5.956;2023-03-14T12:46:14;13.50;44.70
39045;DHT22;52192;52.002;5.956;2023-03-14T12:48:43;13.50;42.90
39045;DHT22;52192;52.002;5.956;2023-03-14T12:51:14;13.50;43.50
39045;DHT22;52192;52.002;5.956;2023-03-14T13:04:45;13.70;44.00
39045;DHT22;52192;52.002;5.956;2023-03-14T13:07:30;13.70;43.60
39045;DHT22;52192;52.002;5.956;2023-03-14T13:10:03;13.80;42.20
39045;DHT22;52192;52.002;5.956;2023-03-14T13:12:44;13.60;42.20
39045;DHT22;52192;52.002;5.956;2023-03-14T13:15:18;13.60;43.10
39045;DHT22;52192;52.002;5.956;2023-03-14T13:17:46;13.60;42.50
39045;DHT22;52192;52.002;5.956;2023-03-14T13:20:24;13.60;42.90
39045;DHT22;52192;52.002;5.956;2023-03-14T13:22:51;13.60;43.40
39045;DHT22;52192;52.002;5.956;2023-03-14T13:25:17;13.80;43.10
39045;DHT22;52192;52.002;5.956;2023-03-14T13:27:47;13.90;42.70
39045;DHT22;52192;52.002;5.956;2023-03-14T13:32:43;14.00;41.70
39045;DHT22;52192;52.002;5.956;2023-03-14T13:35:19;14.10;42.20
39045;DHT22;52192;52.002;5.956;2023-03-14T13:37:45;14.30;42.20
39045;DHT22;52192;52.002;5.956;2023-03-14T13:40:25;14.60;41.10
39045;DHT22;52192;52.002;5.956;2023-03-14T13:43:04;14.90;40.10
39045;DHT22;52192;52.002;5.956;2023-03-14T13:45:30;15.10;40.60
39045;DHT22;52192;52.002;5.956;2023-03-14T13:47:56;15.30;38.50
39045;DHT22;52192;52.002;5.956;2023-03-14T13:50:21;15.30;37.90
39045;DHT22;52192;52.002;5.956;2023-03-14T13:52:55;15.20;36.80
39045;DHT22;52192;52.002;5.956;2023-03-14T13:55:22;15.30;37.40
39045;DHT22;52192;52.002;5.956;2023-03-14T13:57:50;15.30;37.80
39045;DHT22;52192;52.002;5.956;2023-03-14T14:00:25;15.40;36.70
39045;DHT22;52192;52.002;5.956;2023-03-14T14:02:53;15.30;36.90
39045;DHT22;52192;52.002;5.956;2023-03-14T14:05:19;15.30;37.50
39045;DHT22;52192;52.002;5.956;2023-03-14T14:07:44;16.10;37.70
39045;DHT22;52192;52.002;5.956;2023-03-14T14:10:12;17.00;35.50
39045;DHT22;52192;52.002;5.956;2023-03-14T14:12:47;18.40;35.30
39045;DHT22;52192;52.002;5.956;2023-03-14T14:15:26;20.10;33.40
39045;DHT22;52192;52.002;5.956;2023-03-14T14:17:56;21.90;31.30
39045;DHT22;52192;52.002;5.956;2023-03-14T14:20:27;22.90;29.70
39045;DHT22;52192;52.002;5.956;2023-03-14T14:23:01;23.50;28.30
39045;DHT22;52192;52.002;5.956;2023-03-14T14:25:32;24.00;28.70
39045;DHT22;52192;52.002;5.956;2023-03-14T14:27:58;24.00;28.00
39045;DHT22;52192;52.002;5.956;2023-03-14T14:30:32;23.60;28.50
39045;DHT22;52192;52.002;5.956;2023-03-14T14:33:12;23.30;28.60
39045;DHT22;52192;52.002;5.956;2023-03-14T14:35:38;23.80;28.40
39045;DHT22;52192;52.002;5.956;2023-03-14T14:38:11;24.90;28.00
39045;DHT22;52192;52.002;5.956;2023-03-14T14:40:45;25.10;27.00
39045;DHT22;52192;52.002;5.956;2023-03-14T14:43:22;23.90;26.80
39045;DHT22;52192;52.002;5.956;2023-03-14T14:45:53;22.40;27.60
39045;DHT22;52192;52.002;5.956;2023-03-14T14:48:24;21.40;28.70
39045;DHT22;52192;52.002;5.956;2023-03-14T14:50:56;21.40;28.80
39045;DHT22;52192;52.002;5.956;2023-03-14T14:53:40;20.80;28.10
39045;DHT22;52192;52.002;5.956;2023-03-14T14:58:40;18.20;30.60
39045;DHT22;52192;52.002;5.956;2023-03-14T15:01:21;17.20;31.50
39045;DHT22;52192;52.002;5.956;2023-03-14T15:03:51;16.30;32.80
39045;DHT22;52192;52.002;5.956;2023-03-14T15:06:18;15.50;33.80
39045;DHT22;52192;52.002;5.956;2023-03-14T15:08:45;14.90;34.90
39045;DHT22;52192;52.002;5.956;2023-03-14T15:11:20;14.40;35.00
39045;DHT22;52192;52.002;5.956;2023-03-14T15:13:48;14.20;36.00
39045;DHT22;52192;52.002;5.956;2023-03-14T15:16:17;14.10;35.20
39045;DHT22;52192;52.002;5.956;2023-03-14T15:18:43;14.00;35.10
39045;DHT22;52192;52.002;5.956;2023-03-14T15:21:10;13.70;35.50
39045;DHT22;52192;52.002;5.956;2023-03-14T15:23:36;13.40;35.70
39045;DHT22;52192;52.002;5.956;2023-03-14T15:26:04;13.20;36.30
39045;DHT22;52192;52.002;5.956;2023-03-14T15:28:30;12.90;36.60
39045;DHT22;52192;52.002;5.956;2023-03-14T15:30:58;12.70;37.10
39045;DHT22;52192;52.002;5.956;2023-03-14T15:33:25;12.50;37.30
39045;DHT22;52192;52.002;5.956;2023-03-14T15:35:52;12.20;38.00
39045;DHT22;52192;52.002;5.956;2023-03-14T15:38:20;11.90;38.10
39045;DHT22;52192;52.002;5.956;2023-03-14T15:40:48;11.70;38.90
39045;DHT22;52192;52.002;5.956;2023-03-14T15:43:14;11.60;39.20
39045;DHT22;52192;52.002;5.956;2023-03-14T15:45:40;11.60;39.70
39045;DHT22;52192;52.002;5.956;2023-03-14T15:48:11;11.60;40.00
39045;DHT22;52192;52.002;5.956;2023-03-14T15:50:38;11.50;40.20
39045;DHT22;52192;52.002;5.956;2023-03-14T15:53:03;11.50;40.50
39045;DHT22;52192;52.002;5.956;2023-03-14T15:55:29;11.50;41.10
39045;DHT22;52192;52.002;5.956;2023-03-14T15:57:54;11.50;41.40
39045;DHT22;52192;52.002;5.956;2023-03-14T16:00:21;11.50;41.70
39045;DHT22;52192;52.002;5.956;2023-03-14T16:02:47;11.50;41.90
39045;DHT22;52192;52.002;5.956;2023-03-14T16:05:13;11.50;42.20
39045;DHT22;52192;52.002;5.956;2023-03-14T16:07:40;11.50;42.40
39045;DHT22;52192;52.002;5.956;2023-03-14T16:10:07;11.40;42.70
39045;DHT22;52192;52.002;5.956;2023-03-14T16:12:33;11.30;43.60
39045;DHT22;52192;52.002;5.956;2023-03-14T16:14:59;11.20;42.60
39045;DHT22;52192;52.002;5.956;2023-03-14T16:17:25;11.10;43.10
39045;DHT22;52192;52.002;5.956;2023-03-14T16:19:51;11.00;43.40
39045;DHT22;52192;52.002;5.956;2023-03-14T16:22:17;11.00;43.60
39045;DHT22;52192;52.002;5.956;2023-03-14T16:24:43;10.90;43.80
39045;DHT22;52192;52.002;5.956;2023-03-14T16:27:08;10.90;44.00
39045;DHT22;52192;52.002;5.956;2023-03-14T16:29:34;10.80;44.20
39045;DHT22;52192;52.002;5.956;2023-03-14T16:32:00;10.70;44.60
39045;DHT22;52192;52.002;5.956;2023-03-14T16:34:26;10.70;44.80
39045;DHT22;52192;52.002;5.956;2023-03-14T16:36:51;10.70;45.00
39045;DHT22;52192;52.002;5.956;2023-03-14T16:39:18;10.60;45.10
39045;DHT22;52192;52.002;5.956;2023-03-14T16:41:44;10.60;45.30
39045;DHT22;52192;52.002;5.956;2023-03-14T16:44:09;10.50;45.60
39045;DHT22;52192;52.002;5.956;2023-03-14T16:46:35;10.50;45.90